createdAt,value
2018-07-27T00:02:16.451Z,21.00
2018-07-27T00:04:44.910Z,21.10
2018-07-27T00:07:13.993Z,21.10
2018-07-27T00:09:42.422Z,20.90
2018-07-27T00:12:10.844Z,20.80
2018-07-27T00:14:39.309Z,20.80
2018-07-27T00:17:07.833Z,20.60
2018-07-27T00:19:36.490Z,20.60
2018-07-27T00:22:04.985Z,20.60
2018-07-27T00:24:33.551Z,20.50
2018-07-27T00:27:02.067Z,20.40
2018-07-27T00:29:30.574Z,20.30
2018-07-27T00:31:59.190Z,20.20
2018-07-27T00:34:27.691Z,20.20
2018-07-27T00:36:56.151Z,20.20
2018-07-27T00:39:24.621Z,20.40
2018-07-27T00:41:53.094Z,20.50
2018-07-27T00:44:21.529Z,20.60
2018-07-27T00:46:50.035Z,20.70
2018-07-27T00:49:18.540Z,20.70
2018-07-27T00:51:47.023Z,20.60
2018-07-27T00:54:15.916Z,20.50
2018-07-27T00:56:44.976Z,20.30
2018-07-27T00:59:13.441Z,20.20
2018-07-27T01:01:49.017Z,20.00
2018-07-27T01:04:17.492Z,20.00
2018-07-27T01:06:46.014Z,20.20
2018-07-27T01:09:15.166Z,20.30
2018-07-27T01:11:43.659Z,20.30
2018-07-27T01:14:12.110Z,20.40
2018-07-27T01:16:40.571Z,20.40
2018-07-27T01:19:09.952Z,20.20
2018-07-27T01:21:38.425Z,20.10
2018-07-27T01:24:07.482Z,20.00
2018-07-27T01:26:35.949Z,20.10
2018-07-27T01:29:04.701Z,20.00
2018-07-27T01:31:33.183Z,19.90
2018-07-27T01:34:01.597Z,19.90
2018-07-27T01:36:30.773Z,19.80
2018-07-27T01:38:59.330Z,19.80
2018-07-27T01:41:27.760Z,19.80
2018-07-27T01:43:56.285Z,19.90
2018-07-27T01:46:24.835Z,20.00
2018-07-27T01:48:53.691Z,20.00
2018-07-27T01:51:22.235Z,20.00
2018-07-27T01:53:50.664Z,19.90
2018-07-27T01:56:19.097Z,19.90
2018-07-27T01:58:47.526Z,19.80
2018-07-27T02:01:15.980Z,19.80
2018-07-27T02:03:44.457Z,19.80
2018-07-27T02:06:13.493Z,19.80
2018-07-27T02:08:41.986Z,19.80
2018-07-27T02:11:10.404Z,19.70
2018-07-27T02:13:38.835Z,19.70
2018-07-27T02:16:07.363Z,19.60
2018-07-27T02:18:36.435Z,19.40
2018-07-27T02:21:04.906Z,19.30
2018-07-27T02:23:33.431Z,19.30
2018-07-27T02:26:02.328Z,19.40
2018-07-27T02:28:30.877Z,19.40
2018-07-27T02:30:59.989Z,19.30
2018-07-27T02:33:28.438Z,19.40
2018-07-27T02:35:56.881Z,19.50
2018-07-27T02:38:25.430Z,19.60
2018-07-27T02:40:53.923Z,19.60
2018-07-27T02:43:22.398Z,19.60
2018-07-27T02:45:50.863Z,19.50
2018-07-27T02:48:19.442Z,19.30
2018-07-27T02:50:47.916Z,19.20
2018-07-27T02:53:16.377Z,19.10
2018-07-27T02:55:44.839Z,19.20
2018-07-27T02:58:13.365Z,19.20
2018-07-27T03:00:42.592Z,19.30
2018-07-27T03:03:11.038Z,19.40
2018-07-27T03:05:40.257Z,19.50
2018-07-27T03:08:08.720Z,19.40
2018-07-27T03:10:37.187Z,19.40
2018-07-27T03:13:05.698Z,19.30
2018-07-27T03:15:34.229Z,19.30
2018-07-27T03:18:02.673Z,19.30
2018-07-27T03:20:31.122Z,19.30
2018-07-27T03:22:59.779Z,19.40
2018-07-27T03:25:28.415Z,19.40
2018-07-27T03:27:56.827Z,19.40
2018-07-27T03:30:25.441Z,19.50
2018-07-27T03:32:54.745Z,19.50
2018-07-27T03:35:23.842Z,19.50
2018-07-27T03:37:52.465Z,19.50
2018-07-27T03:40:20.982Z,19.60
2018-07-27T03:42:49.475Z,19.60
2018-07-27T03:45:17.912Z,19.70
2018-07-27T03:47:46.364Z,19.70
2018-07-27T03:50:14.849Z,19.70
2018-07-27T03:52:43.290Z,19.80
2018-07-27T03:55:11.769Z,19.80
2018-07-27T03:57:40.377Z,19.80
2018-07-27T04:00:11.246Z,19.70
2018-07-27T04:02:39.765Z,19.70
2018-07-27T04:05:08.425Z,19.60
2018-07-27T04:07:36.962Z,19.60
2018-07-27T04:10:05.953Z,19.50
2018-07-27T04:12:34.531Z,19.50
2018-07-27T04:15:03.110Z,19.60
2018-07-27T04:17:31.477Z,19.60
2018-07-27T04:19:59.905Z,19.60
2018-07-27T04:22:28.389Z,19.60
2018-07-27T04:24:56.836Z,19.40
2018-07-27T04:27:25.253Z,19.40
2018-07-27T04:29:54.371Z,19.40
2018-07-27T04:32:23.355Z,19.50
2018-07-27T04:37:20.872Z,19.50
2018-07-27T04:39:49.988Z,19.40
2018-07-27T04:42:18.638Z,19.40
2018-07-27T04:44:47.121Z,19.40
2018-07-27T04:47:15.730Z,19.50
2018-07-27T04:49:44.269Z,19.40
2018-07-27T04:52:12.702Z,19.30
2018-07-27T04:54:41.125Z,19.30
2018-07-27T04:57:09.749Z,19.40
2018-07-27T04:59:38.505Z,19.40
2018-07-27T05:02:07.033Z,19.60
2018-07-27T05:04:35.457Z,19.70
2018-07-27T05:07:03.942Z,19.90
2018-07-27T05:09:32.431Z,19.90
2018-07-27T05:12:00.961Z,20.00
2018-07-27T05:14:29.406Z,20.10
2018-07-27T05:16:57.861Z,20.20
2018-07-27T05:19:32.915Z,20.10
2018-07-27T05:22:01.372Z,20.00
2018-07-27T05:24:29.888Z,20.00
2018-07-27T05:26:58.482Z,19.90
2018-07-27T05:29:27.016Z,20.00
2018-07-27T05:31:55.475Z,20.10
2018-07-27T05:34:24.117Z,20.30
2018-07-27T05:36:52.513Z,20.40
2018-07-27T05:39:21.020Z,20.60
2018-07-27T05:41:49.503Z,20.60
2018-07-27T05:44:18.104Z,20.70
2018-07-27T05:46:46.679Z,20.80
2018-07-27T05:49:15.107Z,21.00
2018-07-27T05:51:43.699Z,21.20
2018-07-27T05:54:12.934Z,21.20
2018-07-27T05:56:42.254Z,21.30
2018-07-27T05:59:10.724Z,21.40
2018-07-27T06:01:39.653Z,21.50
2018-07-27T06:04:08.157Z,21.60
2018-07-27T06:06:36.679Z,21.80
2018-07-27T06:09:07.773Z,21.80
2018-07-27T06:11:36.353Z,21.90
2018-07-27T06:14:04.996Z,22.00
2018-07-27T06:16:33.556Z,22.10
2018-07-27T06:19:02.033Z,22.20
2018-07-27T06:21:30.631Z,22.20
2018-07-27T06:23:59.350Z,22.30
2018-07-27T06:26:27.818Z,22.40
2018-07-27T06:28:56.293Z,22.40
2018-07-27T06:31:24.897Z,22.60
2018-07-27T06:33:53.377Z,22.70
2018-07-27T06:36:21.957Z,22.70
2018-07-27T06:38:50.539Z,22.80
2018-07-27T06:41:19.049Z,22.90
2018-07-27T06:43:47.786Z,23.00
2018-07-27T06:46:16.576Z,23.10
2018-07-27T06:48:45.632Z,23.20
2018-07-27T06:51:14.136Z,23.30
2018-07-27T06:53:43.407Z,23.50
2018-07-27T06:56:11.917Z,23.40
2018-07-27T06:58:40.397Z,23.50
2018-07-27T07:01:08.858Z,23.70
2018-07-27T07:03:37.397Z,23.70
2018-07-27T07:06:05.905Z,23.80
2018-07-27T07:08:34.566Z,24.00
2018-07-27T07:11:03.061Z,24.20
2018-07-27T07:13:31.579Z,24.30
2018-07-27T07:16:00.077Z,24.40
2018-07-27T07:18:28.795Z,24.50
2018-07-27T07:20:57.342Z,24.60
2018-07-27T07:23:25.875Z,24.70
2018-07-27T07:25:54.559Z,24.70
2018-07-27T07:28:23.050Z,24.90
2018-07-27T07:30:51.521Z,25.00
2018-07-27T07:33:19.942Z,25.10
2018-07-27T07:35:48.449Z,25.20
2018-07-27T07:38:16.989Z,25.40
2018-07-27T07:40:45.477Z,25.60
2018-07-27T07:43:13.945Z,25.70
2018-07-27T07:45:42.434Z,25.80
2018-07-27T07:48:10.919Z,25.80
2018-07-27T07:50:41.154Z,26.10
2018-07-27T07:53:10.486Z,26.10
2018-07-27T07:58:07.674Z,26.60
2018-07-27T08:00:36.198Z,26.80
2018-07-27T08:03:04.971Z,27.00
2018-07-27T08:05:33.592Z,26.90
2018-07-27T08:08:02.065Z,27.10
2018-07-27T08:10:30.539Z,27.20
2018-07-27T08:12:59.598Z,27.20
2018-07-27T08:15:28.136Z,27.80
2018-07-27T08:17:57.780Z,27.90
2018-07-27T08:20:26.319Z,27.90
2018-07-27T08:22:55.444Z,28.40
2018-07-27T08:25:24.018Z,28.80
2018-07-27T08:28:06.313Z,29.20
2018-07-27T08:30:34.924Z,29.50
2018-07-27T08:33:03.382Z,29.90
2018-07-27T08:35:31.948Z,29.30
2018-07-27T08:38:00.499Z,29.20
2018-07-27T08:40:29.155Z,29.30
2018-07-27T08:42:57.709Z,29.50
2018-07-27T08:45:26.221Z,30.10
2018-07-27T08:47:55.417Z,30.40
2018-07-27T08:50:23.846Z,30.90
2018-07-27T08:52:52.402Z,31.30
2018-07-27T08:55:20.947Z,31.50
2018-07-27T08:57:49.458Z,32.00
2018-07-27T09:00:18.263Z,32.10
2018-07-27T09:02:47.613Z,32.10
2018-07-27T09:05:16.061Z,31.90
2018-07-27T09:07:45.990Z,32.30
2018-07-27T09:10:14.499Z,32.70
2018-07-27T09:12:43.026Z,32.90
2018-07-27T09:15:11.690Z,33.20
2018-07-27T09:17:40.960Z,33.40
2018-07-27T09:20:09.545Z,33.60
2018-07-27T09:22:37.994Z,33.50
2018-07-27T09:25:06.768Z,33.60
2018-07-27T09:27:35.159Z,33.00
2018-07-27T09:30:04.724Z,33.20
2018-07-27T09:32:33.318Z,33.70
2018-07-27T09:35:01.886Z,34.10
2018-07-27T09:37:30.973Z,34.30
2018-07-27T09:39:59.421Z,33.60
2018-07-27T09:42:27.911Z,33.20
2018-07-27T09:44:56.485Z,33.50
2018-07-27T09:47:25.242Z,33.90
2018-07-27T09:49:53.804Z,34.30
2018-07-27T09:52:22.283Z,34.60
2018-07-27T09:54:50.762Z,34.70
2018-07-27T09:57:19.871Z,34.70
2018-07-27T09:59:48.331Z,34.40
2018-07-27T10:02:16.904Z,34.20
2018-07-27T10:04:45.630Z,33.90
2018-07-27T10:07:14.890Z,34.40
2018-07-27T10:09:44.185Z,34.30
2018-07-27T10:12:13.021Z,34.30
2018-07-27T10:14:41.485Z,34.60
2018-07-27T10:17:10.000Z,34.30
2018-07-27T10:19:38.504Z,34.30
2018-07-27T10:22:07.238Z,34.30
2018-07-27T10:24:35.667Z,34.00
2018-07-27T10:27:04.198Z,33.90
2018-07-27T10:29:32.690Z,34.20
2018-07-27T10:32:01.214Z,34.10
2018-07-27T10:34:29.737Z,34.20
2018-07-27T10:36:59.070Z,34.40
2018-07-27T10:39:27.605Z,34.80
2018-07-27T10:41:57.003Z,34.80
2018-07-27T10:44:26.289Z,34.20
2018-07-27T10:46:55.100Z,34.70
2018-07-27T10:51:52.716Z,34.90
2018-07-27T10:54:21.197Z,34.90
2018-07-27T10:56:49.645Z,34.80
2018-07-27T10:59:18.170Z,34.50
2018-07-27T11:01:46.739Z,33.70
2018-07-27T11:04:15.216Z,33.30
2018-07-27T11:06:43.682Z,33.00
2018-07-27T11:09:12.193Z,33.30
2018-07-27T11:11:40.839Z,33.70
2018-07-27T11:14:09.340Z,33.90
2018-07-27T11:16:38.507Z,34.30
2018-07-27T11:19:07.667Z,34.50
2018-07-27T11:21:36.201Z,34.70
2018-07-27T11:26:32.865Z,33.10
2018-07-27T11:29:01.404Z,33.60
2018-07-27T11:31:29.877Z,33.70
2018-07-27T11:33:58.441Z,32.90
2018-07-27T11:36:26.877Z,33.00
2018-07-27T11:38:55.477Z,33.00
2018-07-27T11:41:24.208Z,33.40
2018-07-27T11:43:53.129Z,33.90
2018-07-27T11:46:21.970Z,34.00
2018-07-27T11:48:52.035Z,34.20
2018-07-27T11:51:21.641Z,34.70
2018-07-27T11:53:50.247Z,34.80
2018-07-27T11:56:18.729Z,34.70
2018-07-27T12:01:15.484Z,35.50
2018-07-27T12:06:12.206Z,35.50
2018-07-27T12:08:41.246Z,35.70
2018-07-27T12:11:09.687Z,35.70
2018-07-27T12:13:38.423Z,35.10
2018-07-27T12:16:06.945Z,35.00
2018-07-27T12:18:35.404Z,35.50
2018-07-27T12:21:03.918Z,35.90
2018-07-27T12:23:32.326Z,36.20
2018-07-27T12:26:00.877Z,36.10
2018-07-27T12:28:29.619Z,35.00
2018-07-27T12:30:59.066Z,34.20
2018-07-27T12:33:27.536Z,33.50
2018-07-27T12:35:56.067Z,33.10
2018-07-27T12:40:53.424Z,31.90
2018-07-27T12:43:21.958Z,32.00
2018-07-27T12:45:50.395Z,32.10
2018-07-27T12:48:18.929Z,31.70
2018-07-27T12:50:47.402Z,31.50
2018-07-27T12:53:16.857Z,31.20
2018-07-27T12:55:45.376Z,31.00
2018-07-27T12:58:13.901Z,31.30
2018-07-27T13:00:42.412Z,31.50
2018-07-27T13:03:10.977Z,31.90
2018-07-27T13:05:39.874Z,31.90
2018-07-27T13:08:09.113Z,31.90
2018-07-27T13:10:38.161Z,32.00
2018-07-27T13:13:06.854Z,32.00
2018-07-27T13:15:35.537Z,32.20
2018-07-27T13:18:04.975Z,32.30
2018-07-27T13:20:52.177Z,32.60
2018-07-27T13:23:21.756Z,32.90
2018-07-27T13:28:50.134Z,33.30
2018-07-27T13:31:18.634Z,33.00
2018-07-27T13:34:00.301Z,33.00
2018-07-27T13:36:29.420Z,33.10
2018-07-27T13:38:58.077Z,33.50
2018-07-27T13:41:26.545Z,33.10
2018-07-27T13:43:55.140Z,32.80
2018-07-27T13:46:24.011Z,33.00
2018-07-27T13:51:20.629Z,33.70
2018-07-27T13:53:49.061Z,33.80
2018-07-27T13:56:17.556Z,33.80
2018-07-27T13:58:46.108Z,33.80
2018-07-27T14:01:15.411Z,33.90
2018-07-27T14:03:44.516Z,33.90
2018-07-27T14:06:12.976Z,33.90
2018-07-27T14:08:41.622Z,33.50
2018-07-27T14:11:10.228Z,33.40
2018-07-27T14:13:38.897Z,32.90
2018-07-27T14:16:07.435Z,33.00
2018-07-27T14:18:35.878Z,33.00
2018-07-27T14:21:04.310Z,33.10
2018-07-27T14:23:33.326Z,33.40
2018-07-27T14:26:01.809Z,33.10
2018-07-27T14:28:30.242Z,32.70
2018-07-27T14:30:59.188Z,32.80
2018-07-27T14:33:28.670Z,32.60
2018-07-27T14:35:57.190Z,32.60
2018-07-27T14:38:26.271Z,32.80
2018-07-27T14:40:54.826Z,32.40
2018-07-27T14:43:23.278Z,32.30
2018-07-27T14:45:51.809Z,32.50
2018-07-27T14:48:20.814Z,32.70
2018-07-27T14:50:50.211Z,32.70
2018-07-27T14:53:20.255Z,32.20
2018-07-27T14:55:50.212Z,32.00
2018-07-27T14:58:19.634Z,32.10
2018-07-27T15:00:50.801Z,32.40
2018-07-27T15:03:19.892Z,32.50
2018-07-27T15:05:48.492Z,32.50
2018-07-27T15:08:17.062Z,32.60
2018-07-27T15:10:45.707Z,32.40
2018-07-27T15:13:15.056Z,32.10
2018-07-27T15:18:12.926Z,31.60
2018-07-27T15:23:09.697Z,31.50
2018-07-27T15:28:06.347Z,31.70
2018-07-27T15:30:34.804Z,31.60
2018-07-27T15:33:03.418Z,31.60
2018-07-27T15:35:32.172Z,31.70
2018-07-27T15:38:00.831Z,31.70
2018-07-27T15:40:29.464Z,31.80
2018-07-27T15:42:58.879Z,31.80
2018-07-27T15:45:27.913Z,31.80
2018-07-27T15:47:56.428Z,31.60
2018-07-27T15:50:24.934Z,31.50
2018-07-27T15:52:54.257Z,31.60
2018-07-27T15:55:22.721Z,31.80
2018-07-27T15:57:51.332Z,31.50
2018-07-27T16:00:21.902Z,31.40
2018-07-27T16:02:50.377Z,31.30
2018-07-27T16:05:19.860Z,31.30
2018-07-27T16:07:48.442Z,31.20
2018-07-27T16:10:16.912Z,31.30
2018-07-27T16:12:45.426Z,31.30
2018-07-27T16:15:13.925Z,31.20
2018-07-27T16:17:42.418Z,31.20
2018-07-27T16:20:11.329Z,31.20
2018-07-27T16:22:40.460Z,31.20
2018-07-27T16:25:09.114Z,31.30
2018-07-27T16:27:37.632Z,31.20
2018-07-27T16:30:06.157Z,31.10
2018-07-27T16:32:34.646Z,31.10
2018-07-27T16:35:03.185Z,31.00
2018-07-27T16:37:32.926Z,30.90
2018-07-27T16:40:02.074Z,30.90
2018-07-27T16:42:30.556Z,30.90
2018-07-27T16:44:59.082Z,30.90
2018-07-27T16:47:27.588Z,30.90
2018-07-27T16:52:24.518Z,30.90
2018-07-27T16:54:53.389Z,30.80
2018-07-27T16:57:22.224Z,30.80
2018-07-27T16:59:50.983Z,30.80
2018-07-27T17:02:19.393Z,30.80
2018-07-27T17:04:48.387Z,30.70
2018-07-27T17:07:16.898Z,30.70
2018-07-27T17:09:45.424Z,30.70
2018-07-27T17:12:13.984Z,30.60
2018-07-27T17:14:42.648Z,30.50
2018-07-27T17:17:11.258Z,30.50
2018-07-27T17:19:39.809Z,30.50
2018-07-27T17:22:08.445Z,30.50
2018-07-27T17:24:37.006Z,30.50
2018-07-27T17:27:06.381Z,30.40
2018-07-27T17:29:34.904Z,30.30
2018-07-27T17:32:03.965Z,30.30
2018-07-27T17:34:32.521Z,30.30
2018-07-27T17:37:01.354Z,30.20
2018-07-27T17:39:29.972Z,30.20
2018-07-27T17:44:27.001Z,30.10
2018-07-27T17:46:55.484Z,30.10
2018-07-27T17:49:24.119Z,30.10
2018-07-27T17:51:52.790Z,30.00
2018-07-27T17:54:21.281Z,29.90
2018-07-27T17:56:49.907Z,29.80
2018-07-27T17:59:18.653Z,29.80
2018-07-27T18:01:47.176Z,29.80
2018-07-27T18:04:15.664Z,29.70
2018-07-27T18:06:44.236Z,29.60
2018-07-27T18:09:13.219Z,29.60
2018-07-27T18:11:41.742Z,29.60
2018-07-27T18:14:10.606Z,29.60
2018-07-27T18:16:39.135Z,29.50
2018-07-27T18:19:08.458Z,29.50
2018-07-27T18:21:37.266Z,29.40
2018-07-27T18:24:06.004Z,29.30
2018-07-27T18:26:34.967Z,29.10
2018-07-27T18:29:03.530Z,28.90
2018-07-27T18:31:32.096Z,28.70
2018-07-27T18:34:00.616Z,28.50
2018-07-27T18:36:29.187Z,28.40
2018-07-27T18:38:57.709Z,28.30
2018-07-27T18:41:26.238Z,28.20
2018-07-27T18:43:54.691Z,28.20
2018-07-27T18:46:24.123Z,28.20
2018-07-27T18:48:52.586Z,28.20
2018-07-27T18:51:21.059Z,28.10
2018-07-27T18:53:49.648Z,28.10
2018-07-27T18:56:18.332Z,28.10
2018-07-27T18:58:47.116Z,28.10
2018-07-27T19:01:15.621Z,27.90
2018-07-27T19:03:44.776Z,28.00
2018-07-27T19:06:13.313Z,27.90
2018-07-27T19:08:41.838Z,27.80
2018-07-27T19:11:10.570Z,27.90
2018-07-27T19:13:39.408Z,27.70
2018-07-27T19:16:09.249Z,27.60
2018-07-27T19:18:37.788Z,27.50
2018-07-27T19:21:06.337Z,27.50
2018-07-27T19:23:34.857Z,27.40
2018-07-27T19:26:03.310Z,27.40
2018-07-27T19:28:34.876Z,27.20
2018-07-27T19:31:03.471Z,27.20
2018-07-27T19:33:32.100Z,27.20
2018-07-27T19:36:00.564Z,27.20
2018-07-27T19:38:29.024Z,27.10
2018-07-27T19:40:57.736Z,27.10
2018-07-27T19:43:26.335Z,26.90
2018-07-27T19:45:54.819Z,26.80
2018-07-27T19:48:23.913Z,26.70
2018-07-27T19:50:52.457Z,26.60
2018-07-27T19:53:20.972Z,26.60
2018-07-27T19:58:17.755Z,26.50
2018-07-27T20:00:46.306Z,26.60
2018-07-27T20:03:14.839Z,26.30
2018-07-27T20:05:43.506Z,26.20
2018-07-27T20:08:11.998Z,26.00
2018-07-27T20:10:41.264Z,26.00
2018-07-27T20:13:09.690Z,26.00
2018-07-27T20:15:38.136Z,25.80
2018-07-27T20:18:06.671Z,25.80
2018-07-27T20:20:35.201Z,25.90
2018-07-27T20:23:03.747Z,26.00
2018-07-27T20:25:32.293Z,26.00
2018-07-27T20:28:00.825Z,26.00
2018-07-27T20:30:30.047Z,25.90
2018-07-27T20:32:58.517Z,25.80
2018-07-27T20:35:26.989Z,25.70
2018-07-27T20:37:55.632Z,25.60
2018-07-27T20:40:24.139Z,25.50
2018-07-27T20:42:52.719Z,25.40
2018-07-27T20:45:21.232Z,25.40
2018-07-27T20:47:49.677Z,25.40
2018-07-27T20:50:18.806Z,25.30
2018-07-27T20:52:47.371Z,25.30
2018-07-27T20:55:15.838Z,25.40
2018-07-27T20:57:44.437Z,25.30
2018-07-27T21:00:14.153Z,25.30
2018-07-27T21:02:44.125Z,25.40
2018-07-27T21:05:19.209Z,25.40
2018-07-27T21:07:47.750Z,25.30
2018-07-27T21:10:17.553Z,25.30
2018-07-27T21:12:46.066Z,25.30
2018-07-27T21:15:14.538Z,25.30
2018-07-27T21:17:43.131Z,25.30
2018-07-27T21:20:11.610Z,25.20
2018-07-27T21:22:40.053Z,25.10
2018-07-27T21:25:08.564Z,24.80
2018-07-27T21:27:37.121Z,24.70
2018-07-27T21:30:06.043Z,24.50
2018-07-27T21:32:34.584Z,24.50
2018-07-27T21:35:04.307Z,24.60
2018-07-27T21:37:32.991Z,24.60
2018-07-27T21:40:01.538Z,24.40
2018-07-27T21:42:30.031Z,24.30
2018-07-27T21:44:58.504Z,24.20
2018-07-27T21:47:26.931Z,24.10
2018-07-27T21:49:55.466Z,24.10
2018-07-27T21:52:23.920Z,24.10
2018-07-27T21:54:53.142Z,24.10
2018-07-27T21:57:21.769Z,24.10
2018-07-27T21:59:50.220Z,24.00
2018-07-27T22:02:18.795Z,24.00
2018-07-27T22:04:47.253Z,24.00
2018-07-27T22:07:15.827Z,23.70
2018-07-27T22:09:44.327Z,23.60
2018-07-27T22:14:41.046Z,23.50
2018-07-27T22:17:09.752Z,23.60
2018-07-27T22:19:38.256Z,23.60
2018-07-27T22:22:07.565Z,23.50
2018-07-27T22:24:36.222Z,23.40
2018-07-27T22:27:04.853Z,23.40
2018-07-27T22:29:33.983Z,23.40
2018-07-27T22:32:02.550Z,23.20
2018-07-27T22:34:31.168Z,23.10
2018-07-27T22:37:00.819Z,23.10
2018-07-27T22:39:30.063Z,23.10
2018-07-27T22:41:59.348Z,23.00
2018-07-27T22:44:28.062Z,23.00
2018-07-27T22:46:56.713Z,22.90
2018-07-27T22:49:25.920Z,23.00
2018-07-27T22:51:54.727Z,23.10
2018-07-27T22:54:23.351Z,23.20
2018-07-27T22:59:20.998Z,23.20
2018-07-27T23:01:49.581Z,23.00
2018-07-27T23:04:18.234Z,23.00
2018-07-27T23:06:46.743Z,23.00
2018-07-27T23:09:15.505Z,22.90
2018-07-27T23:11:44.775Z,22.90
2018-07-27T23:14:14.213Z,22.80
2018-07-27T23:16:43.581Z,22.70
2018-07-27T23:19:12.279Z,22.70
2018-07-27T23:21:40.905Z,22.70
2018-07-27T23:24:10.007Z,22.40
2018-07-27T23:26:38.914Z,22.30
2018-07-27T23:29:07.536Z,22.20
2018-07-27T23:31:36.043Z,22.30
2018-07-27T23:34:04.784Z,22.30
2018-07-27T23:36:33.341Z,22.30
2018-07-27T23:39:02.058Z,22.20
2018-07-27T23:41:30.746Z,22.20
2018-07-27T23:43:59.348Z,22.30
2018-07-27T23:46:27.997Z,22.20
2018-07-27T23:48:56.746Z,22.20
2018-07-27T23:51:25.281Z,22.20
2018-07-27T23:53:53.737Z,22.30
2018-07-27T23:56:23.031Z,22.30
2018-07-27T23:58:52.315Z,22.30
